KBPI/BPI METAR and TAF weather

Enter ICAO airport designator
Station Type Date Time Source
KBPI METAR 2018/10/16 20:53 UTC NOAA

KBPI 162053Z AUTO VRB04KT 10SM CLR 10/M07 A3041 RMK AO2 SLP288 T01001072 58014


Station Type Date Time Source
KBPI Decoded METAR 2018/10/16 20:53 UTC NOAA

BIG PINEY-MARBLETON AIRPORT, WY, United States (KBPI) 42-35N 110-06W 2117M
Oct 16, 2018 - 04:53 PM EDT / 2018.10.16 2053 UTC
Wind: Variable at 5 MPH (4 KT):0
Visibility: 10 mile(s):0
Sky conditions: clear
Temperature: 50.0 F (10.0 C)
Dew Point: 19.0 F (-7.2 C)
Relative Humidity: 29%
Pressure (altimeter): 30.41 in. Hg (1029 hPa)
Pressure tendency: 0.04 inches (1.4 hPa) lower than three hours ago
ob: KBPI 162053Z AUTO VRB04KT 10SM CLR 10/M07 A3041 RMK AO2 SLP288 T01001072 58014
cycle: 21

Station Type Date Time Source
KBPI TAF 2018/10/16 18:33 UTC NOAA

TAF KBPI 161729Z 1618/1718 VRB05KT P6SM SKC
FM162100 18006KT P6SM SKC
FM170600 35006KT P6SM SKC


Example: see airport list